Decoded Metar for YMDG ( in ) (IATA:) | Meteo·Mobile Aviation Weather
aviador You're here:

YMDG Decoded Metar

in
Report Time2019-10-22 14:00:00
UTC Time2019-10-22 14:13:52
Flight Rules vfr VFR
Wind180° at 03 kt
W.Decomp.*RWY 16: 2.8 kt HW 1.0 kt RCW
RWY 22: 2.3 kt HW 1.9 kt LCW
Visibility9999 m
Phenomena:N/A
Clouds:N/A
Expected CloudBase > 5,600 ft AGL from Temp-Dew spread
CeilingNone
Temp15°C
Dew Point01°C (39% RH)
AAT12.1°C
QNH1023 hPa
Raw Report
METAR YMDG 221400Z AUTO 18003KT 9999 // NCD 15/01 Q1023=

Extra information for YMDG:More info

Social comments